createdAt,value
2022-09-01T00:00:15.189Z,15.00
2022-09-01T00:05:17.150Z,15.00
2022-09-01T00:10:19.058Z,14.90
2022-09-01T00:15:21.148Z,14.90
2022-09-01T00:20:23.045Z,14.90
2022-09-01T00:25:25.080Z,14.80
2022-09-01T00:30:27.081Z,14.80
2022-09-01T00:35:28.994Z,14.80
2022-09-01T00:40:31.988Z,14.80
2022-09-01T00:45:33.918Z,14.90
2022-09-01T00:50:37.653Z,14.90
2022-09-01T00:55:39.710Z,14.90
2022-09-01T01:00:41.937Z,14.90
2022-09-01T01:05:54.238Z,14.80
2022-09-01T01:10:56.307Z,14.90
2022-09-01T01:15:59.742Z,14.80
2022-09-01T01:21:25.707Z,14.80
2022-09-01T01:26:28.491Z,14.80
2022-09-01T01:31:32.468Z,14.80
2022-09-01T01:36:37.275Z,14.80
2022-09-01T01:41:45.222Z,14.80
2022-09-01T01:46:50.743Z,14.80
2022-09-01T01:51:57.980Z,14.90
2022-09-01T01:57:05.846Z,14.80
2022-09-01T02:02:08.642Z,14.80
2022-09-01T02:07:12.962Z,14.80
2022-09-01T02:12:19.083Z,14.80
2022-09-01T02:17:22.026Z,14.90
2022-09-01T02:22:24.130Z,14.80
2022-09-01T02:27:26.860Z,14.80
2022-09-01T02:32:29.319Z,14.80
2022-09-01T02:37:33.886Z,14.80
2022-09-01T02:42:37.578Z,14.80
2022-09-01T02:47:42.041Z,14.80
2022-09-01T02:52:45.119Z,14.80
2022-09-01T02:57:48.399Z,14.70
2022-09-01T03:02:52.911Z,14.80
2022-09-01T03:07:58.310Z,14.70
2022-09-01T03:13:12.916Z,14.80
2022-09-01T03:18:15.220Z,14.70
2022-09-01T03:23:19.537Z,14.60
2022-09-01T03:28:22.931Z,14.70
2022-09-01T03:33:27.099Z,14.60
2022-09-01T03:38:31.778Z,14.60
2022-09-01T03:43:36.356Z,14.60
2022-09-01T03:48:39.661Z,14.60
2022-09-01T03:53:42.117Z,14.70
2022-09-01T03:58:47.452Z,14.70
2022-09-01T04:03:53.049Z,14.60
2022-09-01T04:09:02.962Z,14.50
2022-09-01T04:14:07.389Z,14.50
2022-09-01T04:19:20.978Z,14.30
2022-09-01T04:24:27.977Z,14.30
2022-09-01T04:29:31.875Z,14.30
2022-09-01T04:34:40.349Z,14.30
2022-09-01T04:39:53.664Z,14.30
2022-09-01T04:44:58.160Z,14.20
2022-09-01T04:50:01.993Z,14.20
2022-09-01T04:55:04.002Z,14.10
2022-09-01T05:00:22.277Z,14.20
2022-09-01T05:05:24.458Z,14.20
2022-09-01T05:10:29.984Z,14.20
2022-09-01T05:16:03.695Z,14.30
2022-09-01T05:21:10.903Z,14.30
2022-09-01T05:26:22.131Z,14.30
2022-09-01T05:31:28.123Z,14.40
2022-09-01T05:36:33.744Z,14.50
2022-09-01T05:41:37.139Z,14.60
2022-09-01T05:46:40.516Z,14.80
2022-09-01T05:51:50.480Z,14.90
2022-09-01T05:57:08.157Z,15.00
2022-09-01T06:02:22.426Z,15.20
2022-09-01T06:07:28.545Z,15.30
2022-09-01T06:12:33.767Z,15.40
2022-09-01T06:17:36.771Z,15.70
2022-09-01T06:22:41.037Z,16.00
2022-09-01T06:27:44.846Z,16.30
2022-09-01T06:32:49.585Z,16.40
2022-09-01T06:37:51.426Z,16.30
2022-09-01T06:43:11.959Z,16.30
2022-09-01T06:48:16.598Z,16.10
2022-09-01T06:53:37.309Z,15.90
2022-09-01T06:58:47.260Z,16.00
2022-09-01T07:03:52.128Z,16.00
2022-09-01T07:09:29.635Z,16.00
2022-09-01T07:20:28.509Z,16.10
2022-09-01T07:26:00.335Z,16.50
2022-09-01T07:36:32.999Z,17.00
2022-09-01T07:52:52.230Z,17.50
2022-09-01T07:57:54.649Z,17.50
2022-09-01T08:02:57.288Z,17.80
2022-09-01T08:08:00.054Z,18.10
2022-09-01T08:13:08.112Z,18.40
2022-09-01T08:18:10.584Z,18.60
2022-09-01T08:23:18.795Z,18.60
2022-09-01T08:28:29.565Z,18.50
2022-09-01T08:33:35.108Z,18.80
2022-09-01T08:38:37.674Z,19.10
2022-09-01T08:43:52.581Z,19.20
2022-09-01T08:49:24.629Z,19.10
2022-09-01T08:55:08.290Z,19.10
2022-09-01T09:00:14.222Z,19.00
2022-09-01T09:05:53.655Z,18.90
2022-09-01T09:11:04.613Z,18.80
2022-09-01T09:16:37.261Z,18.60
2022-09-01T09:21:42.411Z,18.60
2022-09-01T09:26:49.637Z,18.60
2022-09-01T09:32:22.668Z,18.60
2022-09-01T09:37:33.583Z,18.50
2022-09-01T09:42:39.284Z,18.50
2022-09-01T09:47:45.416Z,18.80
2022-09-01T09:52:48.651Z,19.30
2022-09-01T09:57:53.090Z,19.20
2022-09-01T10:02:58.677Z,19.20
2022-09-01T10:08:01.183Z,19.20
2022-09-01T10:13:04.661Z,19.00
2022-09-01T10:18:28.724Z,18.80
2022-09-01T10:23:34.686Z,19.00
2022-09-01T10:28:50.011Z,19.00
2022-09-01T10:33:53.042Z,19.00
2022-09-01T10:39:00.750Z,18.90
2022-09-01T10:44:19.358Z,18.90
2022-09-01T10:49:28.083Z,18.90
2022-09-01T10:54:52.713Z,18.90
2022-09-01T10:59:58.077Z,18.90
2022-09-01T11:05:00.496Z,18.90
2022-09-01T11:10:43.470Z,19.10
2022-09-01T11:15:46.209Z,19.30
2022-09-01T11:20:48.838Z,19.80
2022-09-01T11:31:26.933Z,20.80
2022-09-01T11:36:35.314Z,21.40
2022-09-01T11:41:43.003Z,21.60
2022-09-01T11:46:45.695Z,21.20
2022-09-01T11:51:48.463Z,20.60
2022-09-01T11:56:50.458Z,20.20
2022-09-01T12:01:57.895Z,20.00
2022-09-01T12:07:02.733Z,20.10
2022-09-01T12:12:06.873Z,20.30
2022-09-01T12:17:08.925Z,20.50
2022-09-01T12:22:17.962Z,20.70
2022-09-01T12:27:23.244Z,20.70
2022-09-01T12:32:25.127Z,20.60
2022-09-01T12:37:27.679Z,20.30
2022-09-01T12:42:40.662Z,20.10
2022-09-01T12:47:48.160Z,19.90
2022-09-01T12:52:54.806Z,19.90
2022-09-01T12:57:59.712Z,19.80
2022-09-01T13:03:14.211Z,19.70
2022-09-01T13:08:27.134Z,19.60
2022-09-01T13:13:29.719Z,19.60
2022-09-01T13:18:31.512Z,19.50
2022-09-01T13:23:33.495Z,19.40
2022-09-01T13:28:37.582Z,19.60
2022-09-01T13:39:04.194Z,20.40
2022-09-01T13:44:06.066Z,20.90
2022-09-01T13:54:29.837Z,21.30
2022-09-01T13:59:32.971Z,21.20
2022-09-01T14:04:35.170Z,20.80
2022-09-01T14:09:37.420Z,20.30
2022-09-01T14:20:02.163Z,19.80
2022-09-01T14:25:04.799Z,19.70
2022-09-01T14:30:08.398Z,19.60
2022-09-01T14:35:10.530Z,19.60
2022-09-01T14:40:16.923Z,19.50
2022-09-01T14:45:21.783Z,19.50
2022-09-01T14:50:24.678Z,19.50
2022-09-01T14:55:28.353Z,19.40
2022-09-01T15:00:31.558Z,19.20
2022-09-01T15:05:39.929Z,19.20
2022-09-01T15:10:42.294Z,19.20
2022-09-01T15:15:44.081Z,19.20
2022-09-01T15:20:45.906Z,19.10
2022-09-01T15:25:49.194Z,19.10
2022-09-01T15:30:54.357Z,19.10
2022-09-01T15:35:56.235Z,19.10
2022-09-01T15:40:58.932Z,19.00
2022-09-01T15:46:05.518Z,19.10
2022-09-01T15:51:22.740Z,19.20
2022-09-01T15:56:24.755Z,19.20
2022-09-01T16:01:28.156Z,19.20
2022-09-01T16:06:30.083Z,19.20
2022-09-01T16:11:32.048Z,19.10
2022-09-01T16:16:47.883Z,18.90
2022-09-01T16:22:01.161Z,18.90
2022-09-01T16:27:02.954Z,18.80
2022-09-01T16:32:04.978Z,18.70
2022-09-01T16:37:31.268Z,18.60
2022-09-01T16:42:57.821Z,18.50
2022-09-01T16:48:19.410Z,18.40
2022-09-01T16:53:46.022Z,18.30
2022-09-01T16:59:15.743Z,18.20
2022-09-01T17:04:36.037Z,18.20
2022-09-01T17:09:44.891Z,18.10
2022-09-01T17:15:02.026Z,17.90
2022-09-01T17:20:06.012Z,17.70
2022-09-01T17:25:16.087Z,17.60
2022-09-01T17:30:22.189Z,17.50
2022-09-01T17:35:43.655Z,17.30
2022-09-01T17:41:05.411Z,17.20
2022-09-01T17:46:14.983Z,17.10
2022-09-01T17:51:33.065Z,16.90
2022-09-01T17:56:46.806Z,16.70
2022-09-01T18:02:11.595Z,16.70
2022-09-01T18:07:51.765Z,16.60
2022-09-01T18:13:00.923Z,16.40
2022-09-01T18:18:21.286Z,16.30
2022-09-01T18:23:23.563Z,16.10
2022-09-01T18:28:25.353Z,16.00
2022-09-01T18:33:38.488Z,15.90
2022-09-01T18:38:59.717Z,15.90
2022-09-01T18:44:23.297Z,15.80
2022-09-01T18:49:59.828Z,15.70
2022-09-01T18:55:15.233Z,15.60
2022-09-01T19:00:21.899Z,15.50
2022-09-01T19:06:07.910Z,15.30
2022-09-01T19:11:28.196Z,15.20
2022-09-01T19:17:02.466Z,15.10
2022-09-01T19:22:04.413Z,14.90
2022-09-01T19:27:15.938Z,14.90
2022-09-01T19:32:20.799Z,14.70
2022-09-01T19:37:23.109Z,14.70
2022-09-01T19:42:27.765Z,14.70
2022-09-01T19:47:39.239Z,14.50
2022-09-01T19:52:56.744Z,14.50
2022-09-01T19:58:13.993Z,14.30
2022-09-01T20:03:41.077Z,14.20
2022-09-01T20:09:05.579Z,14.00
2022-09-01T20:14:38.176Z,13.90
2022-09-01T20:19:51.278Z,13.80
2022-09-01T20:24:58.334Z,13.80
2022-09-01T20:30:14.377Z,13.70
2022-09-01T20:35:20.776Z,13.60
2022-09-01T20:40:30.840Z,13.50
2022-09-01T20:45:33.006Z,13.40
2022-09-01T20:50:46.365Z,13.40
2022-09-01T20:55:56.389Z,13.30
2022-09-01T21:01:14.206Z,13.20
2022-09-01T21:06:21.711Z,13.10
2022-09-01T21:11:36.588Z,13.00
2022-09-01T21:16:50.664Z,12.80
2022-09-01T21:22:11.375Z,12.70
2022-09-01T21:27:24.818Z,12.50
2022-09-01T21:32:32.181Z,12.50
2022-09-01T21:37:34.155Z,12.40
2022-09-01T21:42:40.624Z,12.30
2022-09-01T21:47:44.115Z,12.20
2022-09-01T21:52:47.998Z,12.10
2022-09-01T21:57:50.695Z,12.10
2022-09-01T22:02:53.019Z,12.00
2022-09-01T22:08:14.173Z,12.00
2022-09-01T22:13:17.389Z,11.90
2022-09-01T22:18:21.031Z,12.00
2022-09-01T22:23:23.001Z,11.90
2022-09-01T22:28:24.951Z,11.90
2022-09-01T22:33:27.320Z,11.90
2022-09-01T22:38:30.417Z,11.80
2022-09-01T22:43:32.370Z,11.90
2022-09-01T22:48:34.139Z,12.00
2022-09-01T22:53:37.750Z,11.80
2022-09-01T22:58:40.585Z,11.80
2022-09-01T23:03:43.830Z,12.00
2022-09-01T23:08:45.726Z,12.00
2022-09-01T23:13:47.502Z,12.00
2022-09-01T23:18:49.987Z,12.00
2022-09-01T23:23:58.669Z,11.90
2022-09-01T23:29:01.746Z,11.80
2022-09-01T23:34:06.023Z,11.80
2022-09-01T23:39:08.142Z,11.80
2022-09-01T23:44:12.011Z,11.70
2022-09-01T23:49:16.582Z,11.70
2022-09-01T23:54:18.418Z,11.80
2022-09-01T23:59:27.177Z,11.90
